createdAt,value
2023-01-17T00:00:19.467Z,25.90
2023-01-17T00:02:51.802Z,26.40
2023-01-17T00:05:43.571Z,25.25
2023-01-17T00:08:34.843Z,24.58
2023-01-17T00:11:04.764Z,22.08
2023-01-17T00:13:34.041Z,26.65
2023-01-17T00:16:03.836Z,32.67
2023-01-17T00:18:33.478Z,25.48
2023-01-17T00:21:20.161Z,29.45
2023-01-17T00:24:08.013Z,29.75
2023-01-17T00:26:57.137Z,25.20
2023-01-17T00:29:24.912Z,26.83
2023-01-17T00:31:53.369Z,30.75
2023-01-17T00:34:24.506Z,25.83
2023-01-17T00:36:52.987Z,27.27
2023-01-17T00:39:22.587Z,26.58
2023-01-17T00:41:50.412Z,25.90
2023-01-17T00:44:36.873Z,30.63
2023-01-17T00:47:23.630Z,23.92
2023-01-17T00:50:11.872Z,29.80
2023-01-17T00:52:58.632Z,24.95
2023-01-17T00:55:47.198Z,23.35
2023-01-17T00:58:33.685Z,22.58
2023-01-17T01:01:27.167Z,22.80
2023-01-17T01:04:17.391Z,25.15
2023-01-17T01:07:04.715Z,24.30
2023-01-17T01:09:51.572Z,27.65
2023-01-17T01:12:39.973Z,27.77
2023-01-17T01:15:32.108Z,25.95
2023-01-17T01:18:38.630Z,27.52
2023-01-17T01:21:44.933Z,25.17
2023-01-17T01:24:34.573Z,26.58
2023-01-17T01:27:22.105Z,26.75
2023-01-17T01:30:13.019Z,25.35
2023-01-17T01:33:01.061Z,22.75
2023-01-17T01:35:31.650Z,24.67
2023-01-17T01:38:05.961Z,26.85
2023-01-17T01:40:44.272Z,27.70
2023-01-17T01:43:20.079Z,23.92
2023-01-17T01:46:00.643Z,22.80
2023-01-17T01:48:38.125Z,25.08
2023-01-17T01:51:11.033Z,27.92
2023-01-17T01:53:44.651Z,28.07
2023-01-17T01:58:51.675Z,26.17
2023-01-17T02:01:24.687Z,25.27
2023-01-17T02:03:54.739Z,27.13
2023-01-17T02:06:32.302Z,24.40
2023-01-17T02:09:08.000Z,27.38
2023-01-17T02:11:39.002Z,23.25
2023-01-17T02:17:07.070Z,28.90
2023-01-17T02:20:22.121Z,22.60
2023-01-17T02:23:33.951Z,26.10
2023-01-17T02:26:36.692Z,23.20
2023-01-17T02:29:24.250Z,19.63
2023-01-17T02:31:59.288Z,25.95
2023-01-17T02:34:38.929Z,25.90
2023-01-17T02:37:14.375Z,21.15
2023-01-17T02:39:52.824Z,29.02
2023-01-17T02:42:28.070Z,24.17
2023-01-17T02:44:57.277Z,24.20
2023-01-17T02:47:31.446Z,28.35
2023-01-17T02:50:09.875Z,24.08
2023-01-17T02:52:57.128Z,28.05
2023-01-17T02:55:38.414Z,29.10
2023-01-17T02:58:24.883Z,26.25
2023-01-17T03:01:05.206Z,27.38
2023-01-17T03:03:43.346Z,23.00
2023-01-17T03:06:17.140Z,30.33
2023-01-17T03:11:17.633Z,23.80
2023-01-17T03:13:46.577Z,22.50
2023-01-17T03:16:21.288Z,27.13
2023-01-17T03:18:53.987Z,30.38
2023-01-17T03:21:24.809Z,25.27
2023-01-17T03:23:55.326Z,23.42
2023-01-17T03:26:24.815Z,27.63
2023-01-17T03:28:54.390Z,27.77
2023-01-17T03:31:23.337Z,26.23
2023-01-17T03:33:53.669Z,24.48
2023-01-17T03:36:23.398Z,26.42
2023-01-17T03:38:53.032Z,27.35
2023-01-17T03:41:26.501Z,29.00
2023-01-17T03:43:56.405Z,23.60
2023-01-17T03:46:27.543Z,23.55
2023-01-17T03:49:00.867Z,23.00
2023-01-17T03:51:30.806Z,26.10
2023-01-17T03:53:59.804Z,24.17
2023-01-17T03:56:29.742Z,24.40
2023-01-17T03:58:59.466Z,24.10
2023-01-17T04:01:28.491Z,26.67
2023-01-17T04:03:59.022Z,24.98
2023-01-17T04:06:30.989Z,22.63
2023-01-17T04:08:59.996Z,25.05
2023-01-17T04:11:29.107Z,26.27
2023-01-17T04:13:58.195Z,27.75
2023-01-17T04:16:31.046Z,23.95
2023-01-17T04:19:01.490Z,27.17
2023-01-17T04:21:30.588Z,30.30
2023-01-17T04:23:59.488Z,25.63
2023-01-17T04:26:28.574Z,24.33
2023-01-17T04:28:57.492Z,25.40
2023-01-17T04:31:29.859Z,26.42
2023-01-17T04:33:58.785Z,23.63
2023-01-17T04:36:30.003Z,28.13
2023-01-17T04:38:59.169Z,24.08
2023-01-17T04:41:28.518Z,27.38
2023-01-17T04:43:57.799Z,31.77
2023-01-17T04:46:26.847Z,27.02
2023-01-17T04:48:55.997Z,27.77
2023-01-17T04:51:24.927Z,26.73
2023-01-17T04:53:55.351Z,30.38
2023-01-17T04:56:24.371Z,28.48
2023-01-17T04:58:53.394Z,30.27
2023-01-17T05:01:23.001Z,32.63
2023-01-17T05:03:52.419Z,32.53
2023-01-17T05:06:21.522Z,33.33
2023-01-17T05:08:50.494Z,39.78
2023-01-17T05:11:20.920Z,31.95
2023-01-17T05:13:50.174Z,36.05
2023-01-17T05:16:20.440Z,35.08
2023-01-17T05:18:53.226Z,26.75
2023-01-17T05:21:22.815Z,36.77
2023-01-17T05:23:52.032Z,37.72
2023-01-17T05:26:22.560Z,31.08
2023-01-17T05:28:52.106Z,34.72
2023-01-17T05:31:21.542Z,33.88
2023-01-17T05:33:50.685Z,34.35
2023-01-17T05:36:21.171Z,36.28
2023-01-17T05:38:50.221Z,40.15
2023-01-17T05:41:19.416Z,34.50
2023-01-17T05:43:49.764Z,36.50
2023-01-17T05:46:19.299Z,40.70
2023-01-17T05:48:50.009Z,43.40
2023-01-17T05:51:22.448Z,37.25
2023-01-17T05:53:51.627Z,34.83
2023-01-17T05:56:21.283Z,41.70
2023-01-17T05:58:51.892Z,32.17
2023-01-17T06:01:20.868Z,45.60
2023-01-17T06:03:50.109Z,45.20
2023-01-17T06:06:19.348Z,40.75
2023-01-17T06:08:48.390Z,38.40
2023-01-17T06:11:18.619Z,43.78
2023-01-17T06:13:49.951Z,43.10
2023-01-17T06:16:20.308Z,39.10
2023-01-17T06:18:49.192Z,39.55
2023-01-17T06:21:18.282Z,45.40
2023-01-17T06:23:47.998Z,42.53
2023-01-17T06:26:16.884Z,42.85
2023-01-17T06:28:47.073Z,44.35
2023-01-17T06:31:16.211Z,41.70
2023-01-17T06:33:46.609Z,44.05
2023-01-17T06:36:15.978Z,45.05
2023-01-17T06:38:49.253Z,40.38
2023-01-17T06:41:23.810Z,46.55
2023-01-17T06:43:54.439Z,40.65
2023-01-17T06:46:23.915Z,49.38
2023-01-17T06:48:54.336Z,44.10
2023-01-17T06:51:23.218Z,40.25
2023-01-17T06:53:52.328Z,44.95
2023-01-17T06:56:21.594Z,41.00
2023-01-17T06:58:51.255Z,43.22
2023-01-17T07:01:20.777Z,46.42
2023-01-17T07:03:50.002Z,39.85
2023-01-17T07:06:20.445Z,44.92
2023-01-17T07:08:49.362Z,42.97
2023-01-17T07:11:18.501Z,36.35
2023-01-17T07:13:52.869Z,42.05
2023-01-17T07:16:22.633Z,44.05
2023-01-17T07:18:52.037Z,34.90
2023-01-17T07:21:22.855Z,43.05
2023-01-17T07:23:52.566Z,41.75
2023-01-17T07:26:21.489Z,38.88
2023-01-17T07:28:50.516Z,43.30
2023-01-17T07:31:19.790Z,38.88
2023-01-17T07:33:49.047Z,37.85
2023-01-17T07:36:18.145Z,44.97
2023-01-17T07:38:49.420Z,48.38
2023-01-17T07:41:18.958Z,43.15
2023-01-17T07:43:48.481Z,47.25
2023-01-17T07:46:17.975Z,41.17
2023-01-17T07:48:47.105Z,47.53
2023-01-17T07:51:16.232Z,46.42
2023-01-17T07:53:45.324Z,44.25
2023-01-17T07:56:16.571Z,44.60
2023-01-17T07:58:45.700Z,44.30
2023-01-17T08:01:16.997Z,44.90
2023-01-17T08:03:46.679Z,41.35
2023-01-17T08:06:20.600Z,45.35
2023-01-17T08:08:51.857Z,49.00
2023-01-17T08:11:22.463Z,47.88
2023-01-17T08:13:57.461Z,48.20
2023-01-17T08:16:28.624Z,51.42
2023-01-17T08:18:58.727Z,49.75
2023-01-17T08:21:27.745Z,40.85
2023-01-17T08:23:57.229Z,40.50
2023-01-17T08:26:32.525Z,51.53
2023-01-17T08:29:02.503Z,46.30
2023-01-17T08:31:34.645Z,53.22
2023-01-17T08:34:03.735Z,47.15
2023-01-17T08:36:33.084Z,46.65
2023-01-17T08:39:02.262Z,50.38
2023-01-17T08:41:32.655Z,47.67
2023-01-17T08:44:01.666Z,48.13
2023-01-17T08:46:32.184Z,50.60
2023-01-17T08:49:02.875Z,47.42
2023-01-17T08:51:32.989Z,42.22
2023-01-17T08:54:01.940Z,54.13
2023-01-17T08:56:32.401Z,52.10
2023-01-17T08:59:03.228Z,48.03
2023-01-17T09:01:41.833Z,44.25
2023-01-17T09:04:11.185Z,49.00
2023-01-17T09:06:41.424Z,47.80
2023-01-17T09:09:11.852Z,50.88
2023-01-17T09:11:42.300Z,56.28
2023-01-17T09:14:13.190Z,42.05
2023-01-17T09:16:42.190Z,52.20
2023-01-17T09:19:11.300Z,62.90
2023-01-17T09:21:40.328Z,50.70
2023-01-17T09:24:09.716Z,52.17
2023-01-17T09:26:38.938Z,46.53
2023-01-17T09:29:09.262Z,56.95
2023-01-17T09:31:38.373Z,53.03
2023-01-17T09:34:07.208Z,52.17
2023-01-17T09:36:36.471Z,50.40
2023-01-17T09:39:05.856Z,55.70
2023-01-17T09:41:37.524Z,49.58
2023-01-17T09:44:17.565Z,50.28
2023-01-17T09:46:50.092Z,54.17
2023-01-17T09:49:31.344Z,48.90
2023-01-17T09:52:01.092Z,49.13
2023-01-17T09:54:36.237Z,52.00
2023-01-17T09:57:17.563Z,46.88
2023-01-17T10:00:03.175Z,56.03
2023-01-17T10:03:01.987Z,49.38
2023-01-17T10:05:48.172Z,58.00
2023-01-17T10:08:30.040Z,46.38
2023-01-17T10:11:14.804Z,53.53
2023-01-17T13:25:14.093Z,52.53
2023-01-17T13:28:12.919Z,60.83
2023-01-17T13:31:10.751Z,59.08
2023-01-17T13:33:51.593Z,52.88
2023-01-17T13:36:50.678Z,58.38
2023-01-17T13:39:41.173Z,58.55
2023-01-17T13:42:20.410Z,68.95
2023-01-17T13:44:50.719Z,59.03
2023-01-17T13:47:40.627Z,54.60
2023-01-17T13:50:49.347Z,55.45
2023-01-17T13:53:48.196Z,56.70
2023-01-17T13:56:27.828Z,58.05
2023-01-17T13:59:02.874Z,54.70
2023-01-17T14:01:52.965Z,59.40
2023-01-17T14:04:24.654Z,55.95
2023-01-17T14:07:01.374Z,58.45
2023-01-17T14:09:44.078Z,60.35
2023-01-17T14:12:36.020Z,60.58
2023-01-17T14:15:20.687Z,55.58
2023-01-17T14:17:55.999Z,58.75
2023-01-17T14:20:45.567Z,55.33
2023-01-17T14:23:41.704Z,59.75
2023-01-17T14:26:46.925Z,54.95
2023-01-17T14:29:55.138Z,65.22
2023-01-17T14:33:18.924Z,58.35
2023-01-17T14:35:54.358Z,58.33
2023-01-17T14:38:26.296Z,65.45
2023-01-17T14:41:02.388Z,62.58
2023-01-17T14:43:42.423Z,61.47
2023-01-17T14:46:20.016Z,56.67
2023-01-17T14:48:53.836Z,61.75
2023-01-17T14:51:25.240Z,65.68
2023-01-17T14:54:00.675Z,66.68
2023-01-17T14:56:35.445Z,67.90
2023-01-17T14:59:07.104Z,64.10
2023-01-17T15:01:37.247Z,69.43
2023-01-17T15:04:25.962Z,58.67
2023-01-17T15:06:59.545Z,67.18
2023-01-17T15:09:33.857Z,69.05
2023-01-17T15:12:04.622Z,63.33
2023-01-17T15:14:40.149Z,61.60
2023-01-17T15:17:18.827Z,62.78
2023-01-17T15:19:54.331Z,65.53
2023-01-17T15:22:38.105Z,59.33
2023-01-17T15:25:10.172Z,60.88
2023-01-17T15:27:40.685Z,62.85
2023-01-17T15:30:16.743Z,60.20
2023-01-17T15:32:51.617Z,68.70
2023-01-17T15:35:25.268Z,63.67
2023-01-17T15:38:00.625Z,67.78
2023-01-17T15:40:33.304Z,55.05
2023-01-17T15:43:03.082Z,57.50
2023-01-17T15:45:37.967Z,59.20
2023-01-17T15:48:38.292Z,60.85
2023-01-17T15:51:10.609Z,52.10
2023-01-17T15:53:42.247Z,61.13
2023-01-17T15:56:24.142Z,69.15
2023-01-17T15:58:54.186Z,59.90
2023-01-17T16:01:27.105Z,56.08
2023-01-17T16:03:56.686Z,60.13
2023-01-17T16:06:45.939Z,55.42
2023-01-17T16:09:25.428Z,59.65
2023-01-17T16:11:55.236Z,51.97
2023-01-17T16:15:12.461Z,59.58
2023-01-17T16:17:45.614Z,58.70
2023-01-17T16:20:22.507Z,56.65
2023-01-17T16:22:53.996Z,54.47
2023-01-17T16:25:25.805Z,60.33
2023-01-17T16:27:56.036Z,52.28
2023-01-17T16:30:25.731Z,52.83
2023-01-17T16:32:57.044Z,58.70
2023-01-17T16:35:28.023Z,57.70
2023-01-17T16:38:02.982Z,59.30
2023-01-17T16:40:34.533Z,63.90
2023-01-17T16:43:04.247Z,54.33
2023-01-17T16:45:41.397Z,59.25
2023-01-17T16:48:14.119Z,56.47
2023-01-17T16:50:48.226Z,53.08
2023-01-17T16:53:31.120Z,56.05
2023-01-17T16:56:11.297Z,67.00
2023-01-17T16:58:45.602Z,54.22
2023-01-17T17:01:25.679Z,56.58
2023-01-17T17:03:55.096Z,59.13
2023-01-17T17:06:30.992Z,56.63
2023-01-17T17:09:02.182Z,62.53
2023-01-17T17:11:31.431Z,51.25
2023-01-17T17:14:11.209Z,57.47
2023-01-17T17:16:47.690Z,64.70
2023-01-17T17:19:17.453Z,54.42
2023-01-17T17:21:49.903Z,56.22
2023-01-17T17:24:47.351Z,63.28
2023-01-17T17:27:30.322Z,53.45
2023-01-17T17:30:01.319Z,55.40
2023-01-17T17:32:46.472Z,54.65
2023-01-17T17:35:20.190Z,61.45
2023-01-17T17:37:53.343Z,49.97
2023-01-17T17:40:24.763Z,62.50
2023-01-17T17:42:54.230Z,60.90
2023-01-17T17:45:24.571Z,56.83
2023-01-17T17:47:54.597Z,59.33
2023-01-17T17:50:28.645Z,59.58
2023-01-17T17:55:36.580Z,59.65
2023-01-17T17:58:06.097Z,54.78
2023-01-17T18:00:45.765Z,56.42
2023-01-17T18:03:16.074Z,49.97
2023-01-17T18:05:49.452Z,50.40
2023-01-17T18:08:26.843Z,56.70
2023-01-17T18:11:01.628Z,51.50
2023-01-17T18:13:32.532Z,56.58
2023-01-17T18:16:08.189Z,57.47
2023-01-17T18:18:42.163Z,57.50
2023-01-17T18:21:13.917Z,63.25
2023-01-17T18:23:46.954Z,56.72
2023-01-17T18:26:19.504Z,55.40
2023-01-17T18:28:51.248Z,52.85
2023-01-17T18:31:21.302Z,56.17
2023-01-17T18:33:51.204Z,49.83
2023-01-17T18:36:20.603Z,52.80
2023-01-17T18:38:50.673Z,50.92
2023-01-17T18:41:23.348Z,54.28
2023-01-17T18:43:52.681Z,52.42
2023-01-17T18:46:25.180Z,49.47
2023-01-17T18:49:05.020Z,52.75
2023-01-17T18:51:37.627Z,49.78
2023-01-17T18:54:09.069Z,51.95
2023-01-17T18:56:42.818Z,51.45
2023-01-17T18:59:18.582Z,48.40
2023-01-17T19:01:48.905Z,57.00
2023-01-17T19:04:19.784Z,54.80
2023-01-17T19:06:52.191Z,49.38
2023-01-17T19:09:22.692Z,51.60
2023-01-17T19:11:53.766Z,49.92
2023-01-17T19:14:26.687Z,48.05
2023-01-17T19:16:57.609Z,46.80
2023-01-17T19:19:29.679Z,52.08
2023-01-17T19:21:59.534Z,49.55
2023-01-17T19:24:30.210Z,47.50
2023-01-17T19:27:03.060Z,48.42
2023-01-17T19:29:36.102Z,48.58
2023-01-17T19:32:07.780Z,49.85
2023-01-17T19:34:44.643Z,46.17
2023-01-17T19:37:17.859Z,47.53
2023-01-17T19:39:54.889Z,47.28
2023-01-17T19:42:34.407Z,51.00
2023-01-17T19:45:06.823Z,49.13
2023-01-17T19:47:37.588Z,42.30
2023-01-17T19:50:13.385Z,47.03
2023-01-17T19:52:46.373Z,47.58
2023-01-17T19:55:16.138Z,47.65
2023-01-17T19:57:54.513Z,42.95
2023-01-17T20:00:30.354Z,47.10
2023-01-17T20:03:08.169Z,40.35
2023-01-17T20:05:43.602Z,41.97
2023-01-17T20:08:15.863Z,41.38
2023-01-17T20:10:46.751Z,47.70
2023-01-17T20:13:26.035Z,45.83
2023-01-17T20:15:59.592Z,48.17
2023-01-17T20:18:41.257Z,47.55
2023-01-17T20:21:16.207Z,49.97
2023-01-17T20:23:48.184Z,49.28
2023-01-17T20:26:31.294Z,47.97
2023-01-17T20:29:10.899Z,49.03
2023-01-17T20:31:44.278Z,43.03
2023-01-17T20:34:19.972Z,47.67
2023-01-17T20:36:49.740Z,46.38
2023-01-17T20:39:22.316Z,50.13
2023-01-17T20:41:52.189Z,50.35
2023-01-17T20:44:36.388Z,44.72
2023-01-17T20:47:09.279Z,50.05
2023-01-17T20:49:38.986Z,48.78
2023-01-17T20:52:15.221Z,48.25
2023-01-17T20:54:45.665Z,49.20
2023-01-17T20:57:15.484Z,47.75
2023-01-17T20:59:48.649Z,47.20
2023-01-17T21:02:18.634Z,50.35
2023-01-17T21:04:50.196Z,47.58
2023-01-17T21:07:19.679Z,48.42
2023-01-17T21:09:49.318Z,50.67
2023-01-17T21:12:23.440Z,46.50
2023-01-17T21:14:54.485Z,49.95
2023-01-17T21:17:32.425Z,50.75
2023-01-17T21:20:06.945Z,55.08
2023-01-17T21:22:36.590Z,43.95
2023-01-17T21:25:06.403Z,52.35
2023-01-17T21:27:36.212Z,46.67
2023-01-17T21:30:09.061Z,48.88
2023-01-17T21:32:39.231Z,50.78
2023-01-17T21:35:09.396Z,51.03
2023-01-17T21:37:38.949Z,44.78
2023-01-17T21:40:14.743Z,45.83
2023-01-17T21:42:45.084Z,50.53
2023-01-17T21:45:20.778Z,49.40
2023-01-17T21:47:50.481Z,47.15
2023-01-17T21:50:32.730Z,48.28
2023-01-17T21:53:08.544Z,46.25
2023-01-17T21:56:09.075Z,47.28
2023-01-17T21:58:49.300Z,49.53
2023-01-17T22:01:34.660Z,44.58
2023-01-17T22:04:07.250Z,50.75
2023-01-17T22:06:38.787Z,43.95
2023-01-17T22:09:08.757Z,49.03
2023-01-17T22:11:38.894Z,44.67
2023-01-17T22:14:08.646Z,50.63
2023-01-17T22:16:39.634Z,47.50
2023-01-17T22:19:09.443Z,51.33
2023-01-17T22:21:38.960Z,47.22
2023-01-17T22:24:09.566Z,49.33
2023-01-17T22:26:41.913Z,47.83
2023-01-17T22:29:12.371Z,51.00
2023-01-17T22:31:43.172Z,46.63
2023-01-17T22:34:15.069Z,44.67
2023-01-17T22:36:45.195Z,47.40
2023-01-17T22:39:14.682Z,49.25
2023-01-17T22:41:44.062Z,43.88
2023-01-17T22:44:13.041Z,46.53
2023-01-17T22:46:44.224Z,41.47
2023-01-17T22:49:15.925Z,48.53
2023-01-17T22:51:46.018Z,45.63
2023-01-17T22:54:15.436Z,50.30
2023-01-17T22:56:50.577Z,43.95
2023-01-17T22:59:28.136Z,44.20
2023-01-17T23:02:07.441Z,41.92
2023-01-17T23:04:36.930Z,48.80
2023-01-17T23:07:06.209Z,43.60
2023-01-17T23:09:36.293Z,44.03
2023-01-17T23:12:09.318Z,52.50
2023-01-17T23:14:56.464Z,52.17
2023-01-17T23:17:44.431Z,41.17
2023-01-17T23:20:13.991Z,45.45
2023-01-17T23:22:43.104Z,45.45
2023-01-17T23:25:14.232Z,45.45
2023-01-17T23:28:02.798Z,44.90
2023-01-17T23:30:34.819Z,48.85
2023-01-17T23:33:10.443Z,53.90
2023-01-17T23:35:42.409Z,48.28
2023-01-17T23:38:30.619Z,50.38
2023-01-17T23:41:22.041Z,48.45
2023-01-17T23:43:54.726Z,53.10
2023-01-17T23:46:25.487Z,41.92
2023-01-17T23:48:58.324Z,44.92
2023-01-17T23:51:31.106Z,44.85
2023-01-17T23:54:05.594Z,43.13
2023-01-17T23:56:34.975Z,42.60
2023-01-17T23:59:04.633Z,41.63
